WXM80 ListenWXM80 Stop

You find our weather info also at:

UK Metoffice

WeatherCloud

Weather Underground

Northeastern Weather Network

AWEKAS

Citizen Weather Observer Program (CWOP)

HAMweather, WeatherForYou, PWS Weather


Weather Underground History page Text

Daily Summary for July 30, 2017 Units:  English    Metric   Both
« Previous Day
Next Day »
Daily Weekly Monthly Yearly Custom
  High: Low: Average:
Temperature: 86.0 °F 63.2 °F 73.4 °F
Dew Point: 62.3 °F 53.8 °F 58.1 °F
Humidity: 81 % 35 % 61 %
Wind Speed: 8.0 mph 0.0 mph 2.5 mph
Wind Gust: 13.8 mph - -
Wind:- - SE
Pressure: 30.01 in 29.84 in -
Precipitation: 0.00 in    
Historical Graphs
 
 
Tabular Data for July 30, 2017
Time Temperature Dew Point Pressure Wind Wind Speed Wind Gust Humidity Rainfall Rate (Hourly)
00:02 67.4 °F 58.8 °F 29.84 in NNE 5.0 mph 8.1 mph 74 % 0.00 in
00:07 67.2 °F 59.0 °F 29.85 in ENE 4.9 mph 8.0 mph 75 % 0.00 in
00:12 67.1 °F 58.5 °F 29.84 in NNE 5.2 mph 7.0 mph 74 % 0.00 in
00:17 67.0 °F 58.4 °F 29.84 in North 5.5 mph 6.9 mph 74 % 0.00 in
00:22 66.9 °F 58.3 °F 29.84 in NNE 3.8 mph 5.8 mph 74 % 0.00 in
00:25 66.9 °F 58.3 °F 29.84 in NNE 3.0 mph 8.1 mph 74 % 0.00 in
00:30 66.8 °F 58.6 °F 29.84 in North 5.6 mph 8.1 mph 75 % 0.00 in
00:35 66.7 °F 58.5 °F 29.84 in NNE 2.4 mph 4.6 mph 75 % 0.00 in
00:40 66.7 °F 58.1 °F 29.85 in NE 3.8 mph 6.0 mph 74 % 0.00 in
00:45 66.5 °F 58.0 °F 29.84 in NNE 6.5 mph 10.0 mph 74 % 0.00 in
00:50 66.5 °F 58.3 °F 29.84 in North 6.1 mph 9.0 mph 75 % 0.00 in
00:55 66.4 °F 58.2 °F 29.84 in NNE 6.0 mph 11.5 mph 75 % 0.00 in
01:00 66.3 °F 58.1 °F 29.84 in North 5.7 mph 8.1 mph 75 % 0.00 in
01:05 66.3 °F 58.1 °F 29.84 in North 5.9 mph 9.2 mph 75 % 0.00 in
01:10 66.3 °F 58.1 °F 29.84 in NNE 3.1 mph 6.9 mph 75 % 0.00 in
01:15 66.2 °F 58.0 °F 29.84 in NNE 4.1 mph 6.9 mph 75 % 0.00 in
01:20 66.2 °F 58.0 °F 29.84 in NNE 6.2 mph 10.4 mph 75 % 0.00 in
01:25 66.2 °F 58.0 °F 29.84 in North 3.8 mph 7.0 mph 75 % 0.00 in
01:30 66.1 °F 57.9 °F 29.84 in NNE 4.6 mph 9.2 mph 75 % 0.00 in
01:35 66.1 °F 57.9 °F 29.84 in NNE 3.8 mph 8.1 mph 75 % 0.00 in
01:40 66.0 °F 57.8 °F 29.84 in North 4.8 mph 5.0 mph 75 % 0.00 in
01:45 66.0 °F 57.8 °F 29.84 in North 6.5 mph 9.2 mph 75 % 0.00 in
01:47 66.0 °F 57.8 °F 29.84 in North 5.2 mph 11.5 mph 75 % 0.00 in
01:52 66.0 °F 57.8 °F 29.84 in NE 6.1 mph 11.5 mph 75 % 0.00 in
01:57 65.9 °F 57.4 °F 29.84 in NE 7.9 mph 10.4 mph 74 % 0.00 in
02:02 65.9 °F 57.7 °F 29.84 in North 6.2 mph 10.4 mph 75 % 0.00 in
02:07 65.9 °F 58.1 °F 29.84 in North 4.0 mph 5.8 mph 76 % 0.00 in
02:12 65.9 °F 58.1 °F 29.84 in NNE 4.2 mph 5.8 mph 76 % 0.00 in
02:17 65.9 °F 58.5 °F 29.84 in North 4.4 mph 6.9 mph 77 % 0.00 in
02:22 65.8 °F 58.0 °F 29.84 in North 5.0 mph 10.4 mph 76 % 0.00 in
02:27 65.8 °F 57.7 °F 29.84 in NNW 5.1 mph 10.4 mph 75 % 0.00 in
02:32 65.9 °F 57.4 °F 29.84 in North 5.2 mph 9.2 mph 74 % 0.00 in
02:37 65.9 °F 57.7 °F 29.84 in North 6.1 mph 9.2 mph 75 % 0.00 in
02:42 65.9 °F 57.7 °F 29.84 in North 6.8 mph 10.4 mph 75 % 0.00 in
02:47 65.9 °F 57.7 °F 29.84 in NNE 3.8 mph 6.9 mph 75 % 0.00 in
02:52 65.9 °F 57.4 °F 29.84 in NNE 8.0 mph 13.8 mph 74 % 0.00 in
02:57 65.9 °F 58.1 °F 29.84 in North 5.7 mph 8.1 mph 76 % 0.00 in
03:02 65.8 °F 58.0 °F 29.84 in NNE 3.8 mph 6.0 mph 76 % 0.00 in
03:07 65.7 °F 57.9 °F 29.85 in North 5.9 mph 9.2 mph 76 % 0.00 in
03:12 65.6 °F 57.8 °F 29.85 in NNE 5.7 mph 6.9 mph 76 % 0.00 in
03:17 65.5 °F 57.4 °F 29.85 in North 3.4 mph 4.6 mph 75 % 0.00 in
03:22 65.5 °F 57.7 °F 29.85 in NNE 4.2 mph 8.1 mph 76 % 0.00 in
03:27 65.5 °F 57.4 °F 29.85 in NNE 4.1 mph 5.8 mph 75 % 0.00 in
03:32 65.4 °F 56.9 °F 29.85 in North 6.5 mph 13.8 mph 74 % 0.00 in
03:37 65.3 °F 56.4 °F 29.85 in NNE 5.9 mph 9.0 mph 73 % 0.00 in
03:42 65.3 °F 56.8 °F 29.85 in NE 5.3 mph 8.0 mph 74 % 0.00 in
03:47 65.3 °F 56.8 °F 29.85 in NNE 3.0 mph 6.0 mph 74 % 0.00 in
03:52 65.2 °F 56.7 °F 29.85 in NNE 6.1 mph 9.2 mph 74 % 0.00 in
03:57 65.1 °F 56.6 °F 29.85 in NNE 2.8 mph 5.8 mph 74 % 0.00 in
04:03 65.1 °F 56.6 °F 29.86 in North 5.7 mph 10.4 mph 74 % 0.00 in
04:08 65.0 °F 56.5 °F 29.86 in North 6.5 mph 10.4 mph 74 % 0.00 in
04:13 65.0 °F 56.9 °F 29.86 in NNE 5.2 mph 8.1 mph 75 % 0.00 in
04:18 65.0 °F 56.9 °F 29.86 in NNW 3.3 mph 5.8 mph 75 % 0.00 in
04:23 64.9 °F 56.8 °F 29.86 in NE 6.8 mph 10.4 mph 75 % 0.00 in
04:28 64.9 °F 56.8 °F 29.86 in NNE 5.1 mph 6.0 mph 75 % 0.00 in
04:33 64.8 °F 57.1 °F 29.86 in NNE 5.2 mph 9.2 mph 76 % 0.00 in
04:38 64.7 °F 57.3 °F 29.87 in North 7.0 mph 10.4 mph 77 % 0.00 in
04:43 64.5 °F 56.8 °F 29.87 in North 5.9 mph 11.5 mph 76 % 0.00 in
04:48 64.5 °F 57.1 °F 29.87 in North 6.8 mph 10.4 mph 77 % 0.00 in
04:54 64.3 °F 57.3 °F 29.87 in North 3.3 mph 10.4 mph 78 % 0.00 in
04:59 64.2 °F 56.8 °F 29.87 in NNE 3.0 mph 8.1 mph 77 % 0.00 in
05:04 64.1 °F 57.1 °F 29.87 in NNE 3.1 mph 6.9 mph 78 % 0.00 in
05:09 63.9 °F 56.5 °F 29.88 in NNE 3.8 mph 5.8 mph 77 % 0.00 in
05:14 63.8 °F 56.8 °F 29.88 in NNE 6.8 mph 10.4 mph 78 % 0.00 in
05:19 63.8 °F 57.2 °F 29.87 in North 2.7 mph 4.6 mph 79 % 0.00 in
05:24 63.7 °F 57.1 °F 29.88 in North 5.8 mph 10.4 mph 79 % 0.00 in
05:29 63.6 °F 57.0 °F 29.87 in NNE 6.1 mph 9.2 mph 79 % 0.00 in
05:34 63.6 °F 57.0 °F 29.88 in NNE 4.8 mph 8.1 mph 79 % 0.00 in
05:39 63.5 °F 56.9 °F 29.88 in North 3.8 mph 5.8 mph 79 % 0.00 in
05:44 63.5 °F 57.2 °F 29.88 in North 4.0 mph 6.0 mph 80 % 0.00 in
05:49 63.4 °F 56.8 °F 29.89 in NNE 4.8 mph 9.2 mph 79 % 0.00 in
05:54 63.4 °F 57.1 °F 29.89 in NNE 3.1 mph 6.0 mph 80 % 0.00 in
05:59 63.3 °F 57.0 °F 29.89 in North 5.5 mph 9.0 mph 80 % 0.00 in
06:04 63.3 °F 57.0 °F 29.89 in ENE 3.0 mph 6.9 mph 80 % 0.00 in
06:09 63.2 °F 56.9 °F 29.89 in North 3.9 mph 5.0 mph 80 % 0.00 in
06:14 63.2 °F 56.9 °F 29.89 in NNE 2.5 mph 8.1 mph 80 % 0.00 in
06:19 63.2 °F 57.3 °F 29.90 in NNE 4.0 mph 5.8 mph 81 % 0.00 in
06:29 63.2 °F 56.9 °F 29.90 in NNE 6.2 mph 11.5 mph 80 % 0.00 in
06:34 63.3 °F 57.0 °F 29.90 in North 2.7 mph 9.2 mph 80 % 0.00 in
06:39 63.4 °F 57.1 °F 29.90 in NE 3.1 mph 5.8 mph 80 % 0.00 in
06:44 63.6 °F 57.3 °F 29.90 in North 4.6 mph 8.1 mph 80 % 0.00 in
06:47 63.7 °F 57.1 °F 29.90 in NNE 3.8 mph 6.0 mph 79 % 0.00 in
06:52 63.9 °F 57.3 °F 29.90 in North 4.7 mph 8.1 mph 79 % 0.00 in
06:57 64.1 °F 57.1 °F 29.91 in North 6.0 mph 9.2 mph 78 % 0.00 in
07:03 64.4 °F 57.0 °F 29.91 in NNE 4.8 mph 10.4 mph 77 % 0.00 in
07:08 64.7 °F 57.3 °F 29.92 in North 3.1 mph 5.8 mph 77 % 0.00 in
07:13 65.1 °F 57.7 °F 29.92 in NNE 5.1 mph 11.5 mph 77 % 0.00 in
07:18 65.4 °F 57.6 °F 29.92 in NE 4.6 mph 9.2 mph 76 % 0.00 in
07:23 65.8 °F 58.0 °F 29.92 in North 6.0 mph 10.4 mph 76 % 0.00 in
07:28 66.1 °F 58.3 °F 29.92 in North 3.4 mph 8.1 mph 76 % 0.00 in
07:33 66.3 °F 58.5 °F 29.92 in NE 4.4 mph 8.1 mph 76 % 0.00 in
07:38 66.5 °F 58.7 °F 29.92 in North 5.3 mph 9.2 mph 76 % 0.00 in
07:43 66.7 °F 58.1 °F 29.92 in NNE 5.8 mph 9.2 mph 74 % 0.00 in
07:44 66.7 °F 58.1 °F 29.92 in NNE 2.4 mph 5.8 mph 74 % 0.00 in
07:49 66.7 °F 57.8 °F 29.92 in NNE 4.0 mph 8.1 mph 73 % 0.00 in
07:54 66.7 °F 57.4 °F 29.93 in NNE 4.7 mph 8.1 mph 72 % 0.00 in
07:59 66.6 °F 57.7 °F 29.93 in North 2.8 mph 5.8 mph 73 % 0.00 in
08:04 66.7 °F 57.8 °F 29.93 in NNE 4.0 mph 5.8 mph 73 % 0.00 in
08:09 66.6 °F 57.7 °F 29.93 in ENE 5.5 mph 8.1 mph 73 % 0.00 in
08:14 66.6 °F 57.7 °F 29.93 in NNE 2.9 mph 5.8 mph 73 % 0.00 in
08:19 66.6 °F 57.7 °F 29.93 in NNW 5.3 mph 8.1 mph 73 % 0.00 in
08:24 66.6 °F 57.7 °F 29.93 in NNE 5.7 mph 8.1 mph 73 % 0.00 in
08:29 66.8 °F 57.9 °F 29.94 in NNE 2.7 mph 3.5 mph 73 % 0.00 in
08:34 66.9 °F 57.6 °F 29.93 in North 2.2 mph 8.1 mph 72 % 0.00 in
08:39 67.2 °F 58.2 °F 29.93 in North 2.6 mph 6.0 mph 73 % 0.00 in
08:44 67.3 °F 58.0 °F 29.94 in NNW 3.8 mph 5.8 mph 72 % 0.00 in
08:49 67.4 °F 58.1 °F 29.93 in NE 5.1 mph 8.1 mph 72 % 0.00 in
08:54 67.4 °F 57.7 °F 29.93 in NNE 6.0 mph 8.0 mph 71 % 0.00 in
08:59 67.5 °F 58.2 °F 29.94 in NNW 4.3 mph 8.1 mph 72 % 0.00 in
09:01 67.6 °F 57.9 °F 29.94 in NNE 5.5 mph 8.1 mph 71 % 0.00 in
09:06 67.7 °F 58.0 °F 29.94 in NE 5.8 mph 8.1 mph 71 % 0.00 in
09:11 67.9 °F 58.5 °F 29.94 in NNW 1.9 mph 8.1 mph 72 % 0.00 in
09:16 68.0 °F 58.6 °F 29.94 in SSE 2.1 mph 4.6 mph 72 % 0.00 in
09:21 68.1 °F 58.3 °F 29.94 in North 2.3 mph 3.5 mph 71 % 0.00 in
09:26 68.2 °F 58.4 °F 29.94 in North 2.6 mph 6.9 mph 71 % 0.00 in
09:31 68.3 °F 58.5 °F 29.94 in NE 2.4 mph 9.0 mph 71 % 0.00 in
09:36 68.4 °F 58.2 °F 29.94 in North 2.0 mph 4.0 mph 70 % 0.00 in
09:41 68.6 °F 58.4 °F 29.95 in NE 5.2 mph 6.0 mph 70 % 0.00 in
09:43 68.7 °F 58.5 °F 29.94 in NNE 1.9 mph 6.9 mph 70 % 0.00 in
09:48 69.0 °F 58.4 °F 29.94 in NNE 4.3 mph 7.0 mph 69 % 0.00 in
09:53 69.2 °F 58.6 °F 29.94 in NNE 1.3 mph 2.3 mph 69 % 0.00 in
09:58 69.6 °F 59.0 °F 29.95 in NE 1.8 mph 6.9 mph 69 % 0.00 in
10:03 70.2 °F 59.6 °F 29.95 in NE 4.0 mph 6.9 mph 69 % 0.00 in
10:08 71.0 °F 58.6 °F 29.95 in North 1.9 mph 6.0 mph 65 % 0.00 in
10:13 71.9 °F 59.9 °F 29.95 in NNW 0.8 mph 3.5 mph 66 % 0.00 in
10:18 72.8 °F 59.0 °F 29.95 in ENE 3.0 mph 7.0 mph 62 % 0.00 in
10:23 73.7 °F 60.3 °F 29.95 in North 2.2 mph 5.8 mph 63 % 0.00 in
10:28 74.6 °F 60.7 °F 29.95 in North 1.5 mph 3.5 mph 62 % 0.00 in
10:33 75.6 °F 60.3 °F 29.95 in NE 3.3 mph 4.6 mph 59 % 0.00 in
10:38 76.5 °F 61.1 °F 29.95 in NNE 4.5 mph 6.9 mph 59 % 0.00 in
10:43 77.4 °F 61.9 °F 29.95 in NE 1.5 mph 2.3 mph 59 % 0.00 in
10:48 78.3 °F 62.3 °F 29.95 in NNE 2.8 mph 4.6 mph 58 % 0.00 in
10:53 79.0 °F 60.9 °F 29.95 in North 1.5 mph 3.5 mph 54 % 0.00 in
10:58 79.4 °F 61.3 °F 29.95 in North 1.9 mph 4.0 mph 54 % 0.00 in
11:03 80.0 °F 60.8 °F 29.96 in ENE 2.7 mph 3.5 mph 52 % 0.00 in
11:08 80.2 °F 61.5 °F 29.96 in NE 1.1 mph 2.3 mph 53 % 0.00 in
11:13 80.6 °F 61.9 °F 29.95 in NNW 2.6 mph 3.5 mph 53 % 0.00 in
11:18 81.0 °F 62.3 °F 29.96 in North 3.7 mph 4.6 mph 53 % 0.00 in
11:23 81.3 °F 62.0 °F 29.96 in NE 0.4 mph 1.2 mph 52 % 0.00 in
11:29 81.6 °F 61.2 °F 29.96 in North 2.3 mph 4.6 mph 50 % 0.00 in
11:34 81.8 °F 60.2 °F 29.96 in ENE 1.4 mph 3.5 mph 48 % 0.00 in
11:39 82.0 °F 61.0 °F 29.96 in NNW 2.5 mph 5.8 mph 49 % 0.00 in
11:44 82.1 °F 60.5 °F 29.96 in ENE 1.4 mph 4.0 mph 48 % 0.00 in
11:49 82.0 °F 61.0 °F 29.96 in SE 0.1 mph 1.2 mph 49 % 0.00 in
11:54 82.2 °F 60.6 °F 29.96 in NE 1.8 mph 3.5 mph 48 % 0.00 in
11:59 82.3 °F 59.4 °F 29.96 in NE 1.0 mph 2.3 mph 46 % 0.00 in
12:04 82.4 °F 57.7 °F 29.96 in NNE 2.5 mph 3.5 mph 43 % 0.00 in
12:09 82.3 °F 56.2 °F 29.96 in ENE 2.9 mph 5.0 mph 41 % 0.00 in
12:14 82.0 °F 59.2 °F 29.97 in NNE 1.8 mph 4.6 mph 46 % 0.00 in
12:19 82.6 °F 60.3 °F 29.97 in Calm     47 % 0.00 in
12:24 83.0 °F 58.2 °F 29.97 in NE 1.1 mph 3.5 mph 43 % 0.00 in
12:29 83.3 °F 58.5 °F 29.97 in NNE 1.1 mph 3.5 mph 43 % 0.00 in
12:34 83.5 °F 59.9 °F 29.97 in Calm   2.3 mph 45 % 0.00 in
12:36 83.7 °F 60.1 °F 29.97 in NNW 3.2 mph 4.6 mph 45 % 0.00 in
12:42 83.8 °F 58.3 °F 29.97 in North 2.4 mph 4.6 mph 42 % 0.00 in
12:47 83.9 °F 57.0 °F 29.97 in NNE 0.1 mph 1.2 mph 40 % 0.00 in
12:52 83.9 °F 58.3 °F 29.97 in NNE 0.8 mph 2.3 mph 42 % 0.00 in
12:57 84.0 °F 57.8 °F 29.97 in NNE 0.4 mph 3.5 mph 41 % 0.00 in
13:02 84.0 °F 56.4 °F 29.97 in ENE 1.0 mph 3.5 mph 39 % 0.00 in
13:07 83.9 °F 59.7 °F 29.97 in NE 0.8 mph 2.3 mph 44 % 0.00 in
13:12 84.1 °F 59.2 °F 29.97 in Calm   1.0 mph 43 % 0.00 in
13:17 84.4 °F 57.4 °F 29.97 in NE 1.3 mph 3.5 mph 40 % 0.00 in
13:22 84.4 °F 56.0 °F 29.97 in NNW 0.1 mph 1.2 mph 38 % 0.00 in
13:27 84.2 °F 56.6 °F 29.97 in NNE 0.4 mph 3.5 mph 39 % 0.00 in
13:32 84.3 °F 57.3 °F 29.97 in ENE 0.1 mph 1.2 mph 40 % 0.00 in
13:37 84.5 °F 58.9 °F 29.97 in NE 0.5 mph 2.3 mph 42 % 0.00 in
13:42 84.5 °F 57.5 °F 29.97 in ENE 0.6 mph 1.2 mph 40 % 0.00 in
13:47 84.6 °F 55.5 °F 29.97 in ENE 0.9 mph 2.3 mph 37 % 0.00 in
13:52 84.5 °F 56.1 °F 29.97 in NNE 0.1 mph 1.2 mph 38 % 0.00 in
13:57 84.5 °F 57.5 °F 29.97 in Calm   1.0 mph 40 % 0.00 in
14:02 84.5 °F 54.6 °F 29.97 in NNE 0.9 mph 2.3 mph 36 % 0.00 in
14:07 84.4 °F 55.3 °F 29.97 in ENE 0.5 mph 2.3 mph 37 % 0.00 in
14:13 84.4 °F 56.0 °F 29.97 in NE 0.1 mph 1.2 mph 38 % 0.00 in
14:18 84.5 °F 53.8 °F 29.97 in Calm   3.5 mph 35 % 0.00 in
14:23 84.6 °F 54.7 °F 29.97 in NNW 1.6 mph 3.5 mph 36 % 0.00 in
14:28 84.6 °F 55.5 °F 29.97 in Calm   1.2 mph 37 % 0.00 in
14:33 84.6 °F 56.2 °F 29.97 in East 0.1 mph 1.2 mph 38 % 0.00 in
14:35 84.6 °F 56.2 °F 29.97 in Calm     38 % 0.00 in
14:40 84.8 °F 55.6 °F 29.97 in NE 1.4 mph 3.5 mph 37 % 0.00 in
14:45 85.0 °F 57.3 °F 29.97 in North 2.0 mph 4.0 mph 39 % 0.00 in
14:50 85.2 °F 57.4 °F 29.97 in NNW 1.3 mph 4.0 mph 39 % 0.00 in
14:55 85.5 °F 57.7 °F 29.97 in NNW 1.0 mph 3.0 mph 39 % 0.00 in
15:00 85.6 °F 57.8 °F 29.97 in North 1.6 mph 3.0 mph 39 % 0.00 in
15:06 85.7 °F 57.1 °F 29.97 in NNE 1.0 mph 5.0 mph 38 % 0.00 in
15:11 85.8 °F 57.3 °F 29.97 in WNW 1.5 mph 4.6 mph 38 % 0.00 in
15:16 85.8 °F 58.0 °F 29.96 in West 0.3 mph 2.0 mph 39 % 0.00 in
15:21 85.6 °F 57.8 °F 29.97 in North 0.8 mph 3.5 mph 39 % 0.00 in
15:26 85.6 °F 58.5 °F 29.96 in WNW 1.6 mph 3.5 mph 40 % 0.00 in
15:31 85.7 °F 57.2 °F 29.96 in Calm   4.0 mph 38 % 0.00 in
15:36 85.8 °F 58.7 °F 29.96 in WNW 1.0 mph 4.0 mph 40 % 0.00 in
15:41 85.8 °F 58.7 °F 29.96 in West 2.0 mph 4.0 mph 40 % 0.00 in
15:46 85.9 °F 59.5 °F 29.96 in West 3.0 mph 6.0 mph 41 % 0.00 in
15:51 85.9 °F 58.1 °F 29.96 in WNW 1.0 mph 5.0 mph 39 % 0.00 in
15:56 85.9 °F 58.1 °F 29.96 in WSW 3.0 mph 5.0 mph 39 % 0.00 in
16:01 85.9 °F 58.8 °F 29.96 in WNW 0.1 mph 2.3 mph 40 % 0.00 in
16:06 85.9 °F 57.3 °F 29.96 in WSW 0.2 mph 1.2 mph 38 % 0.00 in
16:11 86.0 °F 58.2 °F 29.96 in WNW 1.9 mph 3.5 mph 39 % 0.00 in
16:16 85.8 °F 59.4 °F 29.96 in SW 1.8 mph 4.6 mph 41 % 0.00 in
16:21 85.8 °F 58.7 °F 29.96 in WSW 0.7 mph 4.0 mph 40 % 0.00 in
16:26 85.7 °F 57.9 °F 29.96 in WSW 2.9 mph 4.6 mph 39 % 0.00 in
16:31 85.6 °F 59.2 °F 29.96 in WSW 2.1 mph 3.5 mph 41 % 0.00 in
16:35 85.5 °F 57.7 °F 29.96 in West 3.0 mph 5.8 mph 39 % 0.00 in
16:40 85.4 °F 59.0 °F 29.96 in WNW 2.4 mph 3.5 mph 41 % 0.00 in
16:45 85.3 °F 58.9 °F 29.96 in WNW 1.8 mph 5.8 mph 41 % 0.00 in
16:50 85.2 °F 59.5 °F 29.96 in SW 3.2 mph 4.6 mph 42 % 0.00 in
16:55 85.2 °F 58.8 °F 29.96 in SW 2.3 mph 3.5 mph 41 % 0.00 in
17:00 85.0 °F 58.7 °F 29.96 in West 1.5 mph 4.6 mph 41 % 0.00 in
17:05 85.0 °F 59.3 °F 29.96 in North 0.1 mph 1.2 mph 42 % 0.00 in
17:10 84.8 °F 59.2 °F 29.96 in SW 2.7 mph 6.0 mph 42 % 0.00 in
17:15 84.7 °F 59.7 °F 29.96 in WNW 1.2 mph 3.5 mph 43 % 0.00 in
17:20 84.3 °F 59.4 °F 29.96 in West 1.1 mph 3.5 mph 43 % 0.00 in
17:25 84.0 °F 59.7 °F 29.96 in SW 0.2 mph 2.3 mph 44 % 0.00 in
17:30 83.8 °F 59.6 °F 29.96 in WSW 1.6 mph 4.0 mph 44 % 0.00 in
17:35 83.6 °F 58.7 °F 29.96 in SW 2.9 mph 4.0 mph 43 % 0.00 in
17:40 83.3 °F 59.1 °F 29.96 in SSW 0.7 mph 3.5 mph 44 % 0.00 in
17:45 83.0 °F 58.8 °F 29.96 in SW 1.1 mph 2.3 mph 44 % 0.00 in
17:50 82.7 °F 57.9 °F 29.96 in WSW 2.4 mph 5.0 mph 43 % 0.00 in
17:55 82.3 °F 58.2 °F 29.96 in SW 2.6 mph 4.0 mph 44 % 0.00 in
18:00 82.0 °F 58.6 °F 29.96 in SW 0.8 mph 4.0 mph 45 % 0.00 in
18:05 81.7 °F 57.7 °F 29.96 in WNW 1.1 mph 4.6 mph 44 % 0.00 in
18:10 81.5 °F 58.7 °F 29.96 in WSW 1.7 mph 5.0 mph 46 % 0.00 in
18:15 81.2 °F 57.8 °F 29.96 in West 0.6 mph 3.5 mph 45 % 0.00 in
18:20 81.0 °F 57.7 °F 29.96 in WSW 2.5 mph 4.6 mph 45 % 0.00 in
18:25 80.7 °F 57.4 °F 29.96 in SW 2.9 mph 4.6 mph 45 % 0.00 in
18:30 80.6 °F 57.9 °F 29.96 in West 3.0 mph 4.0 mph 46 % 0.00 in
18:35 80.4 °F 58.3 °F 29.96 in WSW 2.3 mph 4.6 mph 47 % 0.00 in
18:40 80.2 °F 58.1 °F 29.96 in West 3.9 mph 4.0 mph 47 % 0.00 in
18:45 80.0 °F 58.5 °F 29.96 in West 3.1 mph 3.5 mph 48 % 0.00 in
18:51 79.9 °F 58.5 °F 29.96 in West 1.3 mph 3.5 mph 48 % 0.00 in
18:56 79.8 °F 58.9 °F 29.96 in WSW 0.6 mph 2.0 mph 49 % 0.00 in
19:00 79.7 °F 58.8 °F 29.96 in WSW 2.1 mph 3.5 mph 49 % 0.00 in
19:05 79.5 °F 58.7 °F 29.96 in WSW 1.9 mph 2.3 mph 49 % 0.00 in
19:10 79.5 °F 58.7 °F 29.95 in WSW 1.2 mph 3.0 mph 49 % 0.00 in
19:16 79.4 °F 59.1 °F 29.96 in WSW 1.0 mph 3.0 mph 50 % 0.00 in
19:21 79.2 °F 58.4 °F 29.96 in Calm     49 % 0.00 in
19:26 79.1 °F 58.3 °F 29.96 in Calm   1.0 mph 49 % 0.00 in
19:31 78.9 °F 58.1 °F 29.96 in Calm   2.0 mph 49 % 0.00 in
19:36 78.6 °F 58.4 °F 29.97 in Calm   1.2 mph 50 % 0.00 in
19:41 78.4 °F 58.2 °F 29.97 in Calm   3.0 mph 50 % 0.00 in
19:46 78.1 °F 58.5 °F 29.97 in NNW 0.1 mph 1.2 mph 51 % 0.00 in
19:51 77.8 °F 58.8 °F 29.97 in Calm     52 % 0.00 in
19:56 77.4 °F 59.0 °F 29.97 in Calm   1.0 mph 53 % 0.00 in
20:01 77.0 °F 59.6 °F 29.98 in Calm     55 % 0.00 in
20:06 76.6 °F 59.7 °F 29.98 in Calm     56 % 0.00 in
20:11 76.2 °F 60.3 °F 29.98 in Calm   1.0 mph 58 % 0.00 in
20:16 75.8 °F 60.4 °F 29.98 in Calm     59 % 0.00 in
20:21 75.3 °F 60.5 °F 29.98 in Calm     60 % 0.00 in
20:26 74.9 °F 61.0 °F 29.98 in Calm   1.0 mph 62 % 0.00 in
20:31 74.4 °F 60.1 °F 29.99 in Calm   1.0 mph 61 % 0.00 in
20:36 74.1 °F 59.3 °F 29.99 in Calm   1.0 mph 60 % 0.00 in
20:41 73.9 °F 59.1 °F 29.99 in Calm   1.0 mph 60 % 0.00 in
20:46 73.5 °F 58.8 °F 29.99 in Calm   2.0 mph 60 % 0.00 in
20:51 73.2 °F 59.4 °F 29.99 in Calm   1.0 mph 62 % 0.00 in
20:56 72.8 °F 59.5 °F 29.99 in Calm   2.0 mph 63 % 0.00 in
21:01 72.4 °F 58.6 °F 29.99 in Calm     62 % 0.00 in
21:06 72.1 °F 58.4 °F 29.99 in WNW 0.9 mph 2.3 mph 62 % 0.00 in
21:11 71.8 °F 58.1 °F 29.99 in West 2.5 mph 3.5 mph 62 % 0.00 in
21:16 71.5 °F 57.8 °F 29.99 in West 0.4 mph 2.3 mph 62 % 0.00 in
21:21 71.3 °F 57.6 °F 30.00 in Calm     62 % 0.00 in
21:26 71.0 °F 57.8 °F 30.00 in Calm     63 % 0.00 in
21:31 70.8 °F 58.0 °F 30.00 in Calm     64 % 0.00 in
21:36 70.6 °F 57.8 °F 30.00 in West 0.4 mph 1.2 mph 64 % 0.00 in
21:41 70.3 °F 57.5 °F 30.01 in Calm     64 % 0.00 in
21:46 70.1 °F 57.8 °F 30.01 in Calm     65 % 0.00 in
21:51 69.9 °F 57.6 °F 30.01 in Calm     65 % 0.00 in
21:56 69.7 °F 57.8 °F 30.00 in West 0.1 mph 1.0 mph 66 % 0.00 in
22:01 69.4 °F 57.5 °F 30.01 in Calm   1.2 mph 66 % 0.00 in
22:06 69.1 °F 57.3 °F 30.01 in West 0.8 mph 2.3 mph 66 % 0.00 in
22:11 68.9 °F 57.5 °F 30.01 in West 0.5 mph 1.2 mph 67 % 0.00 in
22:16 68.6 °F 57.2 °F 30.01 in Calm   1.2 mph 67 % 0.00 in
22:21 68.5 °F 57.1 °F 30.01 in Calm     67 % 0.00 in
22:26 68.3 °F 57.3 °F 30.01 in Calm   1.2 mph 68 % 0.00 in
22:31 68.1 °F 57.1 °F 30.01 in Calm   1.2 mph 68 % 0.00 in
22:36 67.9 °F 56.9 °F 30.01 in West 0.3 mph 1.2 mph 68 % 0.00 in
22:41 67.8 °F 56.9 °F 30.01 in Calm     68 % 0.00 in
22:46 67.6 °F 56.7 °F 30.01 in West 1.3 mph 1.3 mph 68 % 0.00 in
22:52 67.5 °F 56.6 °F 30.01 in West 0.4 mph 1.2 mph 68 % 0.00 in
22:57 67.3 °F 56.4 °F 30.01 in Calm     68 % 0.00 in
23:02 67.2 °F 56.7 °F 30.01 in West 0.1 mph 2.3 mph 69 % 0.00 in
23:07 67.1 °F 56.6 °F 30.01 in Calm   1.2 mph 69 % 0.00 in
23:12 67.0 °F 56.9 °F 30.01 in West 0.9 mph 3.0 mph 70 % 0.00 in
23:17 66.9 °F 56.8 °F 30.01 in West 0.5 mph 2.0 mph 70 % 0.00 in
23:22 66.9 °F 57.2 °F 30.01 in Calm     71 % 0.00 in
23:27 66.9 °F 57.6 °F 30.01 in West 1.1 mph 3.5 mph 72 % 0.00 in
23:32 66.9 °F 58.0 °F 30.01 in SW 1.4 mph 5.8 mph 73 % 0.00 in
23:37 66.9 °F 58.0 °F 30.01 in WSW 1.2 mph 5.8 mph 73 % 0.00 in
23:42 66.9 °F 58.0 °F 30.01 in WSW 0.9 mph 2.3 mph 73 % 0.00 in
23:47 67.0 °F 58.4 °F 30.01 in WSW 0.2 mph 1.2 mph 74 % 0.00 in
23:52 67.1 °F 58.5 °F 30.01 in WSW 0.2 mph 1.2 mph 74 % 0.00 in
23:57 67.1 °F 58.5 °F 30.01 in Calm     74 % 0.00 in
Crab Meadow Weather
Compliments of Weather Underground - 3 mb

Script developed by  Jim McMurry - jmcmurry@mwt.net Adapted for the template by  Wim van der Kuil - Leuven-Template.eu

Weather Terms: Heat Index - The apparent temperature that describes the combined effect of high temperatures and high levels of humidity, which reduces the body's ability to cool itself.